Time;durP1;ratioP1;P1;durP2;ratioP2;P2;SDS_P1;SDS_P2;PMS_P1;PMS_P2;Temp;Humidity;BMP_temperature;BMP_pressure;BME280_temperature;BME280_humidity;BME280_pressure;Samples;Min_cycle;Max_cycle;Signal;HPM_P1;HPM_P2
2022/05/21 00:02:00;;;;;;;27.95;15.05;;;;;;;9.83;100.00;101605.63;4945670;28;20034;-70
2022/05/21 00:04:25;;;;;;;25.88;14.25;;;;;;;9.77;100.00;101599.16;4929982;28;20054;-70
2022/05/21 00:06:51;;;;;;;23.75;13.63;;;;;;;9.77;100.00;101601.84;4944537;28;24329;-70
2022/05/21 00:09:18;;;;;;;25.92;13.15;;;;;;;9.84;100.00;101604.63;4926607;28;24561;-69
2022/05/21 00:11:44;;;;;;;30.70;14.07;;;;;;;9.77;100.00;101596.47;4945746;28;20555;-70
2022/05/21 00:14:10;;;;;;;26.27;12.75;;;;;;;9.82;100.00;101596.72;4929524;28;20468;-70
2022/05/21 00:16:36;;;;;;;29.67;13.27;;;;;;;9.81;100.00;101597.75;4945570;28;20034;-69
2022/05/21 00:19:01;;;;;;;23.70;13.13;;;;;;;9.77;100.00;101593.78;4947099;28;20049;-69
2022/05/21 00:21:27;;;;;;;23.60;12.65;;;;;;;9.80;100.00;101591.53;4929126;28;20057;-70
2022/05/21 00:23:52;;;;;;;24.55;14.50;;;;;;;9.83;100.00;101600.25;4928766;28;20026;-69
2022/05/21 00:26:19;;;;;;;24.58;14.65;;;;;;;9.82;100.00;101599.41;4925148;28;20060;-70
2022/05/21 00:28:46;;;;;;;22.05;15.23;;;;;;;9.87;100.00;101588.94;4946703;28;20477;-70
2022/05/21 00:31:14;;;;;;;29.58;16.55;;;;;;;9.90;100.00;101590.38;4930366;28;20050;-70
2022/05/21 00:33:41;;;;;;;27.17;16.75;;;;;;;9.92;100.00;101583.81;4943359;28;20148;-71
2022/05/21 00:36:09;;;;;;;36.63;20.27;;;;;;;9.96;100.00;101589.63;4927980;28;21422;-70
2022/05/21 00:38:36;;;;;;;35.53;20.10;;;;;;;10.05;100.00;101577.75;4943840;28;20042;-70
2022/05/21 00:41:02;;;;;;;37.50;21.50;;;;;;;10.09;100.00;101584.41;4944176;28;20040;-70
2022/05/21 00:43:56;;;;;;;34.47;22.17;;;;;;;10.11;100.00;101582.38;4929065;28;20164;-70
2022/05/21 00:46:23;;;;;;;;;;;;;;;10.12;100.00;101583.19;4943507;28;20050;-70
2022/05/21 00:49:10;;;;;;;44.63;24.80;;;;;;;10.10;100.00;101572.59;4929201;28;19932;-70
2022/05/21 00:51:50;;;;;;;50.97;26.25;;;;;;;10.15;100.00;101570.19;4943213;28;23425;-69
2022/05/21 00:54:16;;;;;;;52.67;27.27;;;;;;;10.15;100.00;101572.88;4926581;28;20041;-70
2022/05/21 00:56:48;;;;;;;48.33;28.00;;;;;;;10.12;100.00;101567.88;4924871;28;23096;-70
2022/05/21 01:01:59;;;;;;;46.72;28.55;;;;;;;10.15;100.00;101563.97;4943248;28;20034;-70
2022/05/21 01:04:25;;;;;;;43.90;28.85;;;;;;;10.19;100.00;101568.75;4936840;28;20687;-70
2022/05/21 01:06:53;;;;;;;55.55;30.50;;;;;;;10.16;100.00;101569.16;4931075;28;20038;-71
2022/05/21 01:09:19;;;;;;;54.92;30.98;;;;;;;10.12;100.00;101554.41;4925427;28;20038;-71
2022/05/21 01:11:44;;;;;;;53.05;31.52;;;;;;;10.16;100.00;101563.75;4945231;28;20034;-71
2022/05/21 01:14:10;;;;;;;50.95;33.13;;;;;;;10.18;100.00;101555.47;4944498;28;23899;-70
2022/05/21 01:16:37;;;;;;;54.97;32.40;;;;;;;10.25;100.00;101565.34;4926545;28;20089;-70
2022/05/21 01:19:08;;;;;;;53.05;32.28;;;;;;;10.22;100.00;101557.63;4941806;28;20050;-71
2022/05/21 01:21:34;;;;;;;57.03;34.08;;;;;;;10.29;100.00;101562.25;4943556;28;22741;-71
2022/05/21 01:23:59;;;;;;;60.13;34.10;;;;;;;10.41;100.00;101560.69;4942134;28;20132;-70
2022/05/21 01:26:26;;;;;;;62.78;35.30;;;;;;;10.45;100.00;101556.59;4938234;28;20069;-70
2022/05/21 01:28:52;;;;;;;61.33;35.45;;;;;;;10.51;100.00;101550.44;4944306;28;20030;-70
2022/05/21 01:31:18;;;;;;;54.33;35.63;;;;;;;10.59;100.00;101558.34;4940577;28;20049;-69
2022/05/21 01:33:45;;;;;;;58.28;35.45;;;;;;;10.53;100.00;101545.69;4929807;28;20157;-69
2022/05/21 01:36:13;;;;;;;59.55;36.38;;;;;;;10.54;100.00;101535.75;4938271;28;20393;-69
2022/05/21 01:38:39;;;;;;;59.55;36.38;;;;;;;10.56;100.00;101547.13;4930302;28;20045;-69
2022/05/21 01:41:06;;;;;;;61.55;37.35;;;;;;;10.56;100.00;101536.38;4942173;28;20562;-69
2022/05/21 01:46:15;;;;;;;;;;;;;;;10.68;100.00;101540.19;4943345;28;20129;-69
2022/05/21 01:48:41;;;;;;;64.50;40.40;;;;;;;10.75;100.00;101535.69;4926102;28;19925;-69
2022/05/21 01:51:07;;;;;;;76.80;42.78;;;;;;;10.77;100.00;101535.47;4943211;28;20060;-69
2022/05/21 01:53:34;;;;;;;68.95;45.05;;;;;;;10.86;100.00;101537.00;4945406;28;20064;-69
2022/05/21 01:56:00;;;;;;;65.90;45.15;;;;;;;10.94;100.00;101539.53;4957904;28;24553;-69
2022/05/21 01:58:27;;;;;;;69.05;46.35;;;;;;;11.00;100.00;101538.75;4945098;28;20034;-69
2022/05/21 02:00:54;;;;;;;78.70;47.95;;;;;;;11.08;100.00;101538.56;4927728;28;20046;-69
2022/05/21 02:03:19;;;;;;;78.13;47.92;;;;;;;11.15;100.00;101542.13;4944333;28;20079;-70
2022/05/21 02:05:45;;;;;;;70.63;47.05;;;;;;;11.15;100.00;101536.75;4930383;28;20482;-69
2022/05/21 02:08:14;;;;;;;88.85;49.97;;;;;;;11.23;100.00;101544.69;4947213;28;20081;-69
2022/05/21 02:10:41;;;;;;;84.20;51.05;;;;;;;11.27;100.00;101544.25;4933249;28;20053;-69
2022/05/21 02:13:08;;;;;;;77.85;50.22;;;;;;;11.28;100.00;101541.38;4956589;28;20038;-70
2022/05/21 02:15:33;;;;;;;87.65;50.95;;;;;;;11.30;100.00;101549.25;4941548;28;20037;-69
2022/05/21 02:17:59;;;;;;;76.32;49.85;;;;;;;11.34;100.00;101539.75;4934250;28;20160;-71
2022/05/21 02:20:24;;;;;;;85.70;52.53;;;;;;;11.33;100.00;101528.09;4948259;28;20117;-71
2022/05/21 02:22:50;;;;;;;78.55;50.42;;;;;;;11.39;100.00;101534.56;4934579;28;20058;-71
2022/05/21 02:25:16;;;;;;;82.68;53.10;;;;;;;11.32;100.00;101525.63;4947203;28;20580;-70
2022/05/21 02:27:43;;;;;;;80.18;53.65;;;;;;;11.31;100.00;101534.75;4926587;28;20065;-70
2022/05/21 02:30:09;;;;;;;87.20;54.20;;;;;;;11.40;100.00;101533.53;4946210;28;20038;-70
2022/05/21 02:32:34;;;;;;;80.35;54.65;;;;;;;11.41;100.00;101530.66;4932091;28;20053;-70
2022/05/21 02:35:00;;;;;;;82.13;54.33;;;;;;;11.44;100.00;101526.69;4942155;28;20124;-70
2022/05/21 02:40:09;;;;;;;;;;;;;;;11.46;100.00;101516.53;4935294;28;20053;-69
2022/05/21 02:42:43;;;;;;;84.75;52.30;;;;;;;11.50;100.00;101516.97;4946881;28;20280;-70
2022/05/21 02:45:11;;;;;;;83.25;53.88;;;;;;;11.52;100.00;101515.75;4911484;28;20128;-70
2022/05/21 02:47:37;;;;;;;87.82;54.83;;;;;;;11.57;100.00;101524.06;4944207;28;20050;-70
2022/05/21 02:50:03;;;;;;;82.25;53.25;;;;;;;11.66;100.00;101517.44;4931552;28;20053;-70
2022/05/21 02:52:28;;;;;;;88.18;52.28;;;;;;;11.74;100.00;101507.50;4947126;28;20041;-70
2022/05/21 02:54:54;;;;;;;93.43;52.42;;;;;;;11.76;100.00;101521.59;4930578;28;20045;-70
2022/05/21 02:57:19;;;;;;;71.55;48.90;;;;;;;11.79;100.00;101513.09;4947140;28;20069;-71
2022/05/21 02:59:48;;;;;;;81.45;50.28;;;;;;;11.80;100.00;101509.38;4946688;28;20030;-71
2022/05/21 03:02:14;;;;;;;75.38;48.38;;;;;;;11.87;100.00;101512.97;4935057;28;20041;-70
2022/05/21 03:04:39;;;;;;;68.85;46.20;;;;;;;11.85;100.00;101505.06;4944123;28;20045;-70
2022/05/21 03:07:05;;;;;;;77.38;44.83;;;;;;;11.87;100.00;101518.38;4927531;28;20049;-70
2022/05/21 03:12:14;;;;;;;69.75;38.67;;;;;;;11.87;100.00;101518.38;4931342;28;20037;-71
2022/05/21 03:14:40;;;;;;;62.70;40.60;;;;;;;11.94;100.00;101524.59;4941412;28;20128;-71
2022/05/21 03:17:05;;;;;;;61.00;38.20;;;;;;;11.97;100.00;101517.94;4911531;28;20045;-71
2022/05/21 03:19:33;;;;;;;64.32;37.58;;;;;;;11.99;100.00;101527.50;4946312;28;20030;-71
2022/05/21 03:21:59;;;;;;;62.97;37.92;;;;;;;12.07;100.00;101524.59;4939119;28;20030;-71
2022/05/21 03:24:25;;;;;;;56.03;33.05;;;;;;;12.12;100.00;101524.00;4934000;28;21080;-71
2022/05/21 03:26:50;;;;;;;50.40;31.25;;;;;;;12.12;100.00;101522.13;4945056;28;20552;-71
2022/05/21 03:29:16;;;;;;;48.90;29.30;;;;;;;12.18;100.00;101520.47;4931721;28;20050;-71
2022/05/21 03:31:42;;;;;;;51.92;27.17;;;;;;;12.17;100.00;101508.81;4944675;28;20026;-71
2022/05/21 03:34:07;;;;;;;49.42;25.30;;;;;;;12.25;100.00;101521.31;4930828;28;20092;-71
2022/05/21 03:36:33;;;;;;;47.60;25.30;;;;;;;12.31;100.00;101514.22;4962857;28;20173;-71
2022/05/21 03:38:59;;;;;;;49.38;24.88;;;;;;;12.34;100.00;101520.06;4927299;28;20080;-71
2022/05/21 03:41:25;;;;;;;44.78;22.75;;;;;;;12.35;100.00;101516.31;4942890;28;20124;-71
2022/05/21 03:43:52;;;;;;;43.65;22.95;;;;;;;12.39;100.00;101516.75;4926683;28;20042;-72
2022/05/21 03:46:18;;;;;;;40.88;22.33;;;;;;;12.44;100.00;101518.81;4908628;28;20062;-71
2022/05/21 03:48:43;;;;;;;40.70;21.52;;;;;;;12.40;100.00;101518.41;4924561;28;20042;-71
2022/05/21 03:51:10;;;;;;;48.90;22.30;;;;;;;12.36;100.00;101522.56;4911407;28;20049;-71
2022/05/21 03:53:36;;;;;;;40.85;21.33;;;;;;;12.46;100.00;101522.97;4942258;28;20496;-71
2022/05/21 03:56:02;;;;;;;39.33;20.77;;;;;;;12.48;100.00;101525.47;4910715;28;20042;-70
2022/05/21 03:58:28;;;;;;;50.35;21.65;;;;;;;12.43;100.00;101523.38;4959642;28;23570;-71
2022/05/21 04:00:53;;;;;;;42.70;19.85;;;;;;;12.42;100.00;101521.69;4931051;28;20034;-70
2022/05/21 04:03:19;;;;;;;40.25;20.08;;;;;;;12.44;100.00;101525.03;4946165;28;20038;-70
2022/05/21 04:05:45;;;;;;;40.35;18.80;;;;;;;12.47;100.00;101532.75;4947282;28;20080;-71
2022/05/21 04:08:10;;;;;;;41.33;17.50;;;;;;;12.55;100.00;101531.69;4930943;28;20046;-70
2022/05/21 04:10:36;;;;;;;48.40;17.85;;;;;;;12.54;100.00;101533.56;4945258;28;20069;-70
2022/05/21 04:13:01;;;;;;;38.80;16.95;;;;;;;12.52;100.00;101532.09;4929985;28;20100;-71
2022/05/21 04:15:26;;;;;;;40.13;16.10;;;;;;;12.59;100.00;101536.47;4929997;28;20030;-70
2022/05/21 04:17:53;;;;;;;36.15;15.93;;;;;;;12.64;100.00;101538.56;4928227;28;20053;-71
2022/05/21 04:20:21;;;;;;;38.05;13.65;;;;;;;12.69;100.00;101544.16;4945845;28;20133;-70
2022/05/21 04:22:47;;;;;;;34.92;12.98;;;;;;;12.69;100.00;101544.16;4915367;28;20524;-70
2022/05/21 04:25:13;;;;;;;30.45;11.07;;;;;;;12.70;100.00;101553.09;4931944;28;20046;-70
2022/05/21 04:27:39;;;;;;;32.75;11.63;;;;;;;12.70;100.00;101529.59;4940772;28;20037;-70
2022/05/21 04:30:07;;;;;;;37.80;9.30;;;;;;;12.75;100.00;101539.78;4940610;28;20053;-70
2022/05/21 04:32:33;;;;;;;29.17;9.38;;;;;;;12.81;100.00;101542.47;4946275;28;20034;-70
2022/05/21 04:34:58;;;;;;;26.48;7.93;;;;;;;12.87;100.00;101549.72;4911008;28;20038;-70
2022/05/21 04:37:24;;;;;;;27.58;7.43;;;;;;;12.86;100.00;101544.53;4945332;28;20046;-70
2022/05/21 04:39:49;;;;;;;30.00;7.65;;;;;;;12.88;100.00;101547.84;4927288;28;20267;-70
2022/05/21 04:42:15;;;;;;;26.30;7.38;;;;;;;12.89;100.00;101550.34;4946683;28;20057;-70
2022/05/21 04:44:40;;;;;;;21.77;6.38;;;;;;;12.91;100.00;101558.25;4943535;28;20073;-71
2022/05/21 04:47:06;;;;;;;23.08;7.90;;;;;;;12.95;100.00;101558.66;4928026;28;20053;-70
2022/05/21 04:49:31;;;;;;;22.85;6.88;;;;;;;12.99;100.00;101558.03;4952624;28;20038;-70
2022/05/21 04:51:57;;;;;;;23.58;6.47;;;;;;;13.03;100.00;101561.16;4929977;28;20142;-70
2022/05/21 04:54:22;;;;;;;24.40;5.60;;;;;;;13.10;100.00;101562.78;4904097;28;24031;-70
2022/05/21 04:56:48;;;;;;;22.75;5.05;;;;;;;13.28;100.00;101564.03;4925056;28;20038;-71
2022/05/21 04:59:14;;;;;;;25.88;5.05;;;;;;;13.35;100.00;101567.53;4924181;28;20034;-70
2022/05/21 05:01:40;;;;;;;21.45;4.75;;;;;;;13.25;100.00;101575.28;4929850;28;20069;-70
2022/05/21 05:04:06;;;;;;;15.32;3.90;;;;;;;13.21;100.00;101574.00;4924434;28;20042;-70
2022/05/21 05:06:32;;;;;;;19.15;4.47;;;;;;;13.19;100.00;101567.97;4943489;28;20050;-70
2022/05/21 05:08:58;;;;;;;23.80;4.53;;;;;;;13.35;100.00;101575.66;4926651;28;20041;-70
2022/05/21 05:11:23;;;;;;;19.42;4.35;;;;;;;13.48;100.00;101572.06;4924736;28;24655;-71
2022/05/21 05:13:49;;;;;;;16.13;4.32;;;;;;;13.77;100.00;101584.25;4928409;28;20042;-70
2022/05/21 05:16:15;;;;;;;15.40;4.20;;;;;;;14.26;100.00;101588.13;4943484;28;20077;-70
2022/05/21 05:18:40;;;;;;;23.27;4.55;;;;;;;14.26;100.00;101598.97;4929752;28;22672;-71
2022/05/21 05:21:06;;;;;;;17.80;3.80;;;;;;;14.16;100.00;101598.59;4946765;28;20057;-71
2022/05/21 05:23:31;;;;;;;19.60;3.80;;;;;;;13.91;100.00;101590.41;4928875;28;20041;-70
2022/05/21 05:25:59;;;;;;;27.27;5.13;;;;;;;13.77;100.00;101604.03;4932652;28;20049;-71
2022/05/21 05:28:25;;;;;;;21.67;3.92;;;;;;;13.95;100.00;101608.72;4943890;28;20144;-71
2022/05/21 05:30:52;;;;;;;14.85;3.40;;;;;;;14.00;100.00;101608.88;4928502;28;20103;-70
2022/05/21 05:33:19;;;;;;;9.95;3.33;;;;;;;13.90;100.00;101613.09;4944702;28;20030;-71
2022/05/21 05:35:47;;;;;;;16.15;3.38;;;;;;;13.88;100.00;101617.94;4923269;28;20078;-71
2022/05/21 05:38:13;;;;;;;21.23;4.20;;;;;;;13.99;100.00;101630.78;4943138;28;20034;-71
2022/05/21 05:40:40;;;;;;;16.77;3.70;;;;;;;14.05;100.00;101619.91;4935889;28;20063;-71
2022/05/21 05:43:06;;;;;;;15.20;3.55;;;;;;;14.08;100.00;101624.91;4965000;28;20030;-71
2022/05/21 05:45:31;;;;;;;17.33;3.88;;;;;;;14.10;100.00;101632.81;4949304;28;20125;-71
2022/05/21 05:47:57;;;;;;;22.40;3.85;;;;;;;14.52;100.00;101619.63;4930039;28;20048;-71
2022/05/21 05:50:23;;;;;;;16.60;3.40;;;;;;;15.45;100.00;101616.06;4944508;28;20034;-71
2022/05/21 05:52:49;;;;;;;12.50;3.22;;;;;;;15.28;100.00;101630.22;4933136;28;23531;-71
2022/05/21 05:55:14;;;;;;;21.02;3.67;;;;;;;14.93;100.00;101621.81;4949902;28;20033;-71
2022/05/21 05:57:40;;;;;;;24.95;4.05;;;;;;;14.72;100.00;101625.75;4930500;28;24801;-71
2022/05/21 06:00:07;;;;;;;15.18;3.10;;;;;;;14.49;100.00;101618.16;4944196;28;20034;-70
2022/05/21 06:05:19;;;;;;;15.75;3.22;;;;;;;14.34;100.00;101633.91;4944674;28;20196;-71
2022/05/21 06:07:48;;;;;;;16.80;3.00;;;;;;;14.40;100.00;101630.34;4947549;28;20132;-70
2022/05/21 06:10:17;;;;;;;17.88;3.40;;;;;;;14.53;100.00;101638.41;4933880;28;20046;-70
2022/05/21 06:12:42;;;;;;;14.25;2.83;;;;;;;14.45;100.00;101630.50;4944111;28;20117;-69
2022/05/21 06:15:09;;;;;;;20.60;3.08;;;;;;;14.50;100.00;101646.16;4931449;28;20053;-69
2022/05/21 06:17:36;;;;;;;18.45;4.03;;;;;;;14.42;100.00;101644.47;4949437;28;20038;-69
2022/05/21 06:20:02;;;;;;;17.20;3.45;;;;;;;14.55;100.00;101646.31;4932703;28;20072;-69
2022/05/21 06:22:28;;;;;;;14.30;3.13;;;;;;;14.53;100.00;101657.38;4948068;28;20128;-69
2022/05/21 06:24:53;;;;;;;18.90;3.40;;;;;;;14.63;100.00;101654.16;4932772;28;20144;-69
2022/05/21 06:27:19;;;;;;;15.68;2.97;;;;;;;14.63;100.00;101658.75;4946677;28;20058;-70
2022/05/21 06:29:46;;;;;;;19.63;3.40;;;;;;;14.56;100.00;101651.50;4948306;28;20033;-70
2022/05/21 06:32:12;;;;;;;20.73;3.33;;;;;;;14.57;100.00;101660.50;4932472;28;20041;-70
2022/05/21 06:34:37;;;;;;;18.92;3.67;;;;;;;15.49;100.00;101656.09;4948486;28;20042;-70
2022/05/21 06:37:04;;;;;;;23.23;4.20;;;;;;;17.33;100.00;101652.81;4930388;28;20053;-70
2022/05/21 06:39:33;;;;;;;18.00;3.50;;;;;;;17.98;100.00;101650.94;4948027;28;20066;-71
2022/05/21 06:41:59;;;;;;;18.10;3.67;;;;;;;18.45;100.00;101667.09;4926598;28;20050;-70
2022/05/21 06:44:24;;;;;;;15.02;3.00;;;;;;;17.68;100.00;101662.00;4925920;28;20149;-70
2022/05/21 06:46:50;;;;;;;16.52;2.97;;;;;;;16.46;100.00;101669.75;4930686;28;20643;-69
2022/05/21 06:49:17;;;;;;;10.73;2.72;;;;;;;15.83;100.00;101664.75;4941892;28;20255;-70
2022/05/21 06:51:43;;;;;;;19.98;3.67;;;;;;;16.55;100.00;101674.84;4941645;28;20030;-69
2022/05/21 06:54:08;;;;;;;14.57;3.35;;;;;;;18.05;100.00;101671.53;4941037;28;20569;-69
2022/05/21 06:56:33;;;;;;;17.10;3.13;;;;;;;18.91;100.00;101673.34;4955603;28;20069;-70
2022/05/21 06:58:59;;;;;;;14.75;3.20;;;;;;;18.48;100.00;101680.25;4921965;28;20710;-70
2022/05/21 07:01:24;;;;;;;12.75;2.70;;;;;;;17.56;100.00;101683.84;4939903;28;20535;-69
2022/05/21 07:03:50;;;;;;;12.90;3.28;;;;;;;16.79;100.00;101689.38;4924585;28;20037;-69
2022/05/21 07:08:59;;;;;;;15.75;2.70;;;;;;;16.92;100.00;101683.72;4925755;28;20788;-69
2022/05/21 07:11:25;;;;;;;12.77;3.28;;;;;;;18.07;100.00;101691.19;4939008;28;20087;-70
2022/05/21 07:13:50;;;;;;;19.15;3.35;;;;;;;17.79;100.00;101696.59;4945004;28;20072;-69
2022/05/21 07:16:16;;;;;;;17.10;3.05;;;;;;;17.62;100.00;101701.94;4930327;28;20045;-69
2022/05/21 07:18:41;;;;;;;18.67;2.90;;;;;;;16.94;100.00;101690.56;4947595;28;20081;-70
2022/05/21 07:21:10;;;;;;;11.65;2.72;;;;;;;16.43;100.00;101696.56;4931397;28;20392;-69
2022/05/21 07:23:36;;;;;;;20.17;3.50;;;;;;;16.39;100.00;101696.19;4946310;28;20044;-69
2022/05/21 07:26:01;;;;;;;16.00;3.90;;;;;;;16.67;100.00;101703.75;4932464;28;20477;-69
2022/05/21 07:28:27;;;;;;;16.42;3.70;;;;;;;16.97;100.00;101707.50;4945549;28;20100;-69
2022/05/21 07:30:53;;;;;;;15.02;2.60;;;;;;;17.50;100.00;101712.00;4930492;28;20040;-69
2022/05/21 07:33:20;;;;;;;10.48;2.45;;;;;;;17.45;100.00;101711.91;4940863;28;20041;-69
2022/05/21 07:35:46;;;;;;;17.60;3.25;;;;;;;17.55;100.00;101717.56;4946691;28;20137;-70
2022/05/21 07:38:13;;;;;;;15.35;3.08;;;;;;;17.32;100.00;101719.25;4922453;28;20049;-69
2022/05/21 07:40:39;;;;;;;11.68;2.30;;;;;;;17.16;100.00;101718.06;4947784;28;20053;-70
2022/05/21 07:43:16;;;;;;;13.98;3.10;;;;;;;16.64;100.00;101725.13;4926662;28;20054;-70
2022/05/21 07:45:43;;;;;;;13.70;2.80;;;;;;;16.30;100.00;101730.19;4956768;28;20034;-70
2022/05/21 07:48:12;;;;;;;16.52;3.60;;;;;;;16.70;100.00;101729.63;4932099;28;20068;-70
2022/05/21 07:50:40;;;;;;;12.75;3.58;;;;;;;17.62;100.00;101721.03;4928083;28;20164;-70
2022/05/21 07:53:26;;;;;;;14.05;2.83;;;;;;;19.40;100.00;101728.19;4932820;28;20073;-70
2022/05/21 07:55:53;;;;;;;12.25;3.88;;;;;;;20.35;84.34;101723.44;4946756;28;20930;-70
2022/05/21 07:58:19;;;;;;;16.63;3.13;;;;;;;19.46;92.76;101732.66;4944399;28;20038;-70
2022/05/21 08:00:45;;;;;;;15.63;4.47;;;;;;;18.25;100.00;101736.56;4936707;28;20034;-70
2022/05/21 08:03:10;;;;;;;17.98;4.15;;;;;;;17.34;100.00;101738.91;4949826;28;20038;-71
2022/05/21 08:05:38;;;;;;;16.27;4.70;;;;;;;16.56;100.00;101739.03;4934103;28;20116;-71
2022/05/21 08:08:04;;;;;;;23.77;6.50;;;;;;;16.90;100.00;101741.06;4943111;28;20049;-71
2022/05/21 08:10:29;;;;;;;16.23;3.10;;;;;;;18.32;100.00;101750.88;4929470;28;23613;-71
2022/05/21 08:12:55;;;;;;;15.65;2.97;;;;;;;19.64;84.83;101748.00;4942363;28;20042;-72
2022/05/21 08:15:21;;;;;;;10.70;2.85;;;;;;;19.64;86.42;101758.91;4933633;28;20050;-72
2022/05/21 08:17:47;;;;;;;17.25;2.85;;;;;;;18.71;96.22;101762.03;4955424;28;20152;-71
2022/05/21 08:20:13;;;;;;;14.85;3.20;;;;;;;17.99;100.00;101758.91;4946705;28;20447;-71
2022/05/21 08:28:08;;;;;;;12.75;3.15;;;;;;;20.13;78.81;101761.78;4928666;28;21741;-69
2022/05/21 08:30:34;;;;;;;11.63;3.20;;;;;;;18.95;78.62;101745.50;4946637;28;20037;-71
2022/05/21 08:33:01;;;;;;;19.25;3.17;;;;;;;17.88;97.11;101766.84;4940494;28;20041;-71
2022/05/21 08:35:26;;;;;;;16.25;4.00;;;;;;;18.64;88.39;101761.31;4957519;28;20050;-70
2022/05/21 08:37:52;;;;;;;12.52;3.13;;;;;;;19.11;80.07;101774.72;4929668;28;23489;-69
2022/05/21 08:40:17;;;;;;;14.85;3.25;;;;;;;19.77;78.78;101769.50;4945122;28;20123;-69
2022/05/21 08:42:52;;;;;;;15.73;3.30;;;;;;;20.64;67.45;101762.38;4931149;28;22728;-71
2022/05/21 08:45:23;;;;;;;14.43;3.45;;;;;;;20.71;67.04;101768.50;4939627;28;20123;-73
2022/05/21 08:48:03;;;;;;;16.70;3.67;;;;;;;20.81;68.30;101779.53;4938221;28;20076;-69
2022/05/21 08:50:32;;;;;;;14.20;3.13;;;;;;;20.65;65.86;101781.28;4928891;28;20060;-70
2022/05/21 08:53:07;;;;;;;14.00;2.50;;;;;;;20.73;61.89;101783.56;4943434;28;20034;-70
2022/05/21 08:55:36;;;;;;;10.55;2.75;;;;;;;20.86;59.59;101781.50;4932048;28;20052;-70
2022/05/21 08:58:04;;;;;;;11.27;2.72;;;;;;;20.26;63.30;101781.38;4956983;28;20088;-70
2022/05/21 09:00:35;;;;;;;11.57;2.72;;;;;;;19.64;67.45;101792.53;4923451;28;20046;-69
2022/05/21 09:03:05;;;;;;;14.30;2.50;;;;;;;19.05;76.21;101783.91;4961808;28;20057;-69
2022/05/21 09:05:30;;;;;;;11.55;2.40;;;;;;;19.46;73.15;101790.03;4917899;28;22608;-69
2022/05/21 09:08:09;;;;;;;7.60;1.73;;;;;;;19.37;70.55;101797.00;4924506;28;20066;-70
2022/05/21 09:10:50;;;;;;;14.07;2.90;;;;;;;19.15;75.17;101794.19;4931468;28;20137;-70
2022/05/21 09:13:20;;;;;;;10.40;2.35;;;;;;;18.98;78.13;101799.63;4959455;28;21263;-70
2022/05/21 09:18:32;;;;;;;14.27;2.60;;;;;;;17.56;100.00;101806.41;4942354;28;20536;-70
2022/05/21 09:21:19;;;;;;;12.45;2.97;;;;;;;18.55;98.25;101812.69;4946519;28;20069;-70
2022/05/21 09:23:57;;;;;;;14.88;2.45;;;;;;;19.67;72.91;101808.44;4932567;28;20437;-70
2022/05/21 09:26:50;;;;;;;12.65;2.75;;;;;;;19.92;66.42;101796.22;4943074;28;20108;-70
2022/05/21 09:29:26;;;;;;;16.60;4.28;;;;;;;19.69;68.19;101813.66;4931313;28;20042;-70
2022/05/21 09:31:54;;;;;;;9.07;2.35;;;;;;;18.58;78.71;101822.31;4940595;28;20122;-71
2022/05/21 09:34:33;;;;;;;13.82;3.60;;;;;;;17.87;93.02;101827.06;4927023;28;20046;-71
2022/05/21 09:37:00;;;;;;;12.82;3.67;;;;;;;17.41;100.00;101818.59;4933007;28;20034;-70
2022/05/21 09:39:40;;;;;;;15.50;3.17;;;;;;;17.49;100.00;101824.78;4920675;28;21173;-69
2022/05/21 09:45:26;;;;;;;11.73;1.95;;;;;;;17.55;100.00;101823.81;4913886;28;20052;-69
2022/05/21 09:48:03;;;;;;;10.88;2.55;;;;;;;18.23;91.23;101820.50;4937488;28;20149;-69
2022/05/21 09:50:29;;;;;;;16.58;2.88;;;;;;;17.93;93.49;101826.09;4923673;28;20104;-70
2022/05/21 09:52:55;;;;;;;8.30;1.98;;;;;;;17.75;96.13;101829.75;4958413;28;20038;-70
2022/05/21 09:55:30;;;;;;;15.07;3.58;;;;;;;17.61;100.00;101833.78;4921207;28;23691;-69
2022/05/21 09:58:09;;;;;;;15.65;3.08;;;;;;;17.40;100.00;101830.53;4937248;28;20049;-69
2022/05/21 10:00:37;;;;;;;14.35;2.83;;;;;;;17.11;100.00;101839.59;4921082;28;20487;-70
2022/05/21 10:03:05;;;;;;;15.52;3.63;;;;;;;16.84;100.00;101839.97;4950722;28;23425;-70
2022/05/21 10:05:36;;;;;;;21.02;5.53;;;;;;;16.81;100.00;101834.16;4935817;28;20072;-70
2022/05/21 10:10:59;;;;;;;12.65;2.65;;;;;;;17.03;100.00;101842.66;4937195;28;20148;-70
2022/05/21 10:13:39;;;;;;;11.15;2.97;;;;;;;17.15;100.00;101847.06;4934902;28;20045;-70
2022/05/21 10:16:36;;;;;;;23.23;3.97;;;;;;;17.17;100.00;101844.13;4934978;28;20111;-71
2022/05/21 10:19:23;;;;;;;17.05;4.32;;;;;;;17.25;100.00;101845.69;4914271;28;20046;-70
2022/05/21 10:22:06;;;;;;;18.05;5.15;;;;;;;17.29;100.00;101841.41;4925320;28;20484;-70
2022/05/21 10:24:53;;;;;;;17.95;5.97;;;;;;;17.62;100.00;101847.19;4922237;28;20566;-69
2022/05/21 10:27:43;;;;;;;19.17;4.88;;;;;;;17.62;100.00;101852.63;4939939;28;20050;-70
2022/05/21 10:30:17;;;;;;;20.75;5.50;;;;;;;18.61;92.25;101851.84;4929826;28;24814;-70
2022/05/21 10:33:04;;;;;;;20.45;5.20;;;;;;;18.71;82.44;101849.34;4941880;28;20038;-70
2022/05/21 10:36:00;;;;;;;13.90;3.05;;;;;;;19.28;80.29;101857.50;4927473;28;20042;-71
2022/05/21 10:38:41;;;;;;;16.33;5.35;;;;;;;18.66;80.04;101864.75;4923453;28;20043;-70
2022/05/21 10:41:38;;;;;;;10.70;2.30;;;;;;;18.15;84.69;101871.84;4921137;28;20079;-68
2022/05/21 10:44:52;;;;;;;11.65;2.53;;;;;;;18.29;97.54;101855.00;4939285;28;20152;-72
2022/05/21 10:47:20;;;;;;;16.67;2.10;;;;;;;19.40;80.38;101857.44;4933576;28;20053;-71
2022/05/21 10:50:05;;;;;;;13.18;2.83;;;;;;;19.80;70.22;101861.97;4939179;28;20127;-70
2022/05/21 10:53:03;;;;;;;13.68;2.80;;;;;;;19.61;67.99;101864.06;4923249;28;20045;-70
2022/05/21 10:55:41;;;;;;;14.50;2.50;;;;;;;-145.76;100.00;65039.31;4939258;28;20057;-70
2022/05/21 10:58:06;;;;;;;10.57;1.83;;;;;;;-145.76;100.00;65039.31;4930078;28;20042;-71
2022/05/21 11:00:50;;;;;;;9.15;2.45;;;;;;;-145.76;100.00;65039.31;4941714;28;20054;-71
2022/05/21 11:03:30;;;;;;;12.45;2.40;;;;;;;-145.76;100.00;65039.31;4922841;28;20052;-71
2022/05/21 11:06:47;;;;;;;11.02;2.17;;;;;;;-145.76;100.00;65039.31;4942640;28;20065;-70
2022/05/21 11:09:18;;;;;;;10.07;1.90;;;;;;;-145.76;100.00;65039.31;4930391;28;20073;-71
2022/05/21 11:12:00;;;;;;;9.77;1.85;;;;;;;-145.76;100.00;65039.31;4946094;28;20219;-71
2022/05/21 11:14:43;;;;;;;16.88;3.47;;;;;;;-145.76;100.00;65039.31;4931667;28;20045;-71
2022/05/21 11:17:41;;;;;;;12.85;3.88;;;;;;;-145.76;100.00;65039.31;4947816;28;20099;-71
2022/05/21 11:20:15;;;;;;;13.10;2.47;;;;;;;-145.76;100.00;65039.31;4941377;28;20120;-72
2022/05/21 11:23:07;;;;;;;14.90;3.58;;;;;;;-145.76;100.00;65039.31;4945218;28;20135;-70
2022/05/21 11:25:47;;;;;;;10.35;2.63;;;;;;;-145.76;100.00;65039.31;4929874;28;20074;-71
2022/05/21 11:28:25;;;;;;;12.15;3.05;;;;;;;-145.76;100.00;65039.31;4944384;28;20042;-71
2022/05/21 11:30:56;;;;;;;11.32;3.00;;;;;;;-145.76;100.00;65039.31;4933498;28;20909;-71
2022/05/21 11:38:54;;;;;;;10.48;1.90;;;;;;;-145.76;100.00;65039.31;4963028;28;21713;-69
2022/05/21 11:41:58;;;;;;;15.88;3.03;;;;;;;-145.76;100.00;65039.31;4927039;28;20073;-69
2022/05/21 11:47:22;;;;;;;8.90;2.45;;;;;;;-145.76;100.00;65039.31;4928381;28;20034;-69
2022/05/21 11:50:00;;;;;;;15.45;3.05;;;;;;;-145.76;100.00;65039.31;4940098;28;20046;-70
2022/05/21 11:52:31;;;;;;;11.55;2.40;;;;;;;-145.76;100.00;65039.31;4924776;28;21327;-70
2022/05/21 11:54:56;;;;;;;14.63;2.67;;;;;;;-145.76;100.00;65039.31;4941645;28;20107;-70
2022/05/21 11:57:34;;;;;;;9.85;2.22;;;;;;;-145.76;100.00;65039.31;4929079;28;20042;-70
2022/05/21 12:00:03;;;;;;;8.93;2.50;;;;;;;-145.76;100.00;65039.31;4945437;28;20111;-69